Time,TemperatureF,DewpointF,PressureIn,WindDirection,WindDirectionDegrees,WindSpeedMPH,WindSpeedGustMPH,Humidity,HourlyPrecipIn,Conditions,Clouds,dailyrainin,SoftwareType,DateUTC
2013-06-30 00:03:00,51.4,46.0,29.99,SE,126,0.0,3.0,81,0.00,,,0.00,weatherlink.com 1.10,2013-06-30 06:03:00,
2013-06-30 00:18:00,51.9,46.0,29.99,SSW,212,0.0,2.0,80,0.00,,,0.00,weatherlink.com 1.10,2013-06-30 06:18:00,
2013-06-30 00:33:00,50.6,45.0,29.99,SSW,212,0.0,0.0,82,0.00,,,0.00,weatherlink.com 1.10,2013-06-30 06:33:00,
2013-06-30 00:48:00,49.9,45.0,29.99,SSW,212,0.0,0.0,84,0.00,,,0.00,weatherlink.com 1.10,2013-06-30 06:48:00,
2013-06-30 01:03:00,49.4,45.0,29.99,SSW,212,0.0,0.0,85,0.00,,,0.00,weatherlink.com 1.10,2013-06-30 07:03:00,
2013-06-30 01:19:00,49.3,45.0,29.99,SSW,207,0.0,0.0,85,0.00,,,0.00,weatherlink.com 1.10,2013-06-30 07:19:00,
2013-06-30 01:34:00,49.7,45.0,29.98,SW,222,0.0,2.0,85,0.00,,,0.00,weatherlink.com 1.10,2013-06-30 07:34:00,
2013-06-30 01:49:00,50.1,46.0,29.97,SW,217,0.0,3.0,84,0.00,,,0.00,weatherlink.com 1.10,2013-06-30 07:49:00,
2013-06-30 02:04:00,50.0,45.0,29.96,SE,143,2.0,2.0,84,0.00,,,0.00,weatherlink.com 1.10,2013-06-30 08:04:00,
2013-06-30 02:19:00,50.3,45.0,29.96,SSW,207,1.0,4.0,83,0.00,,,0.00,weatherlink.com 1.10,2013-06-30 08:19:00,
2013-06-30 02:34:00,50.2,45.0,29.95,SW,226,1.0,2.0,83,0.00,,,0.00,weatherlink.com 1.10,2013-06-30 08:34:00,
2013-06-30 02:49:00,49.9,45.0,29.95,SW,219,0.0,0.0,84,0.00,,,0.00,weatherlink.com 1.10,2013-06-30 08:49:00,
2013-06-30 03:04:00,50.0,45.0,29.96,SW,228,0.0,0.0,84,0.00,,,0.00,weatherlink.com 1.10,2013-06-30 09:04:00,
2013-06-30 03:19:00,50.3,45.0,29.96,SW,226,0.0,0.0,83,0.00,,,0.00,weatherlink.com 1.10,2013-06-30 09:19:00,
2013-06-30 03:34:00,50.0,45.0,29.95,SW,227,0.0,0.0,84,0.00,,,0.00,weatherlink.com 1.10,2013-06-30 09:34:00,
2013-06-30 03:49:00,49.7,46.0,29.95,WSW,245,0.0,0.0,87,0.00,,,0.00,weatherlink.com 1.10,2013-06-30 09:49:00,
2013-06-30 04:04:00,49.1,45.0,29.95,WSW,243,0.0,0.0,87,0.00,,,0.00,weatherlink.com 1.10,2013-06-30 10:04:00,
2013-06-30 04:19:00,49.2,46.0,29.95,SSW,212,0.0,3.0,88,0.00,,,0.00,weatherlink.com 1.10,2013-06-30 10:19:00,
2013-06-30 04:34:00,49.2,46.0,29.95,SW,229,1.0,1.0,87,0.00,,,0.00,weatherlink.com 1.10,2013-06-30 10:34:00,
2013-06-30 04:49:00,48.6,45.0,29.95,SW,229,0.0,0.0,88,0.00,,,0.00,weatherlink.com 1.10,2013-06-30 10:49:00,
2013-06-30 05:04:00,48.4,45.0,29.95,SW,229,0.0,0.0,89,0.00,,,0.00,weatherlink.com 1.10,2013-06-30 11:04:00,
2013-06-30 05:19:00,48.5,46.0,29.95,SW,224,2.0,4.0,89,0.00,,,0.00,weatherlink.com 1.10,2013-06-30 11:19:00,
2013-06-30 05:34:00,48.6,46.0,29.95,SE,134,0.0,3.0,89,0.00,,,0.00,weatherlink.com 1.10,2013-06-30 11:34:00,
2013-06-30 05:49:00,48.8,45.0,29.95,SSW,197,1.0,4.0,88,0.00,,,0.00,weatherlink.com 1.10,2013-06-30 11:49:00,
2013-06-30 06:04:00,49.2,46.0,29.95,SSE,153,0.0,3.0,88,0.00,,,0.00,weatherlink.com 1.10,2013-06-30 12:04:00,
2013-06-30 06:19:00,48.5,46.0,29.96,WSW,243,0.0,2.0,89,0.00,,,0.00,weatherlink.com 1.10,2013-06-30 12:19:00,
2013-06-30 06:34:00,48.4,45.0,29.96,WSW,245,0.0,0.0,89,0.00,,,0.00,weatherlink.com 1.10,2013-06-30 12:34:00,
2013-06-30 06:49:00,48.9,46.0,29.95,SSW,210,2.0,2.0,89,0.00,,,0.00,weatherlink.com 1.10,2013-06-30 12:49:00,
2013-06-30 07:04:00,50.0,46.0,29.95,SSW,208,0.0,6.0,87,0.00,,,0.00,weatherlink.com 1.10,2013-06-30 13:04:00,
2013-06-30 07:19:00,51.2,47.0,29.94,SW,231,1.0,6.0,84,0.00,,,0.00,weatherlink.com 1.10,2013-06-30 13:19:00,
2013-06-30 07:34:00,52.1,47.0,29.94,SSW,195,0.0,0.0,84,0.00,,,0.00,weatherlink.com 1.10,2013-06-30 13:34:00,
2013-06-30 07:49:00,55.8,50.0,29.94,SW,214,0.0,2.0,81,0.00,,,0.00,weatherlink.com 1.10,2013-06-30 13:49:00,
2013-06-30 08:04:00,59.6,51.0,29.93,WSW,240,0.0,1.0,73,0.00,,,0.00,weatherlink.com 1.10,2013-06-30 14:04:00,
2013-06-30 08:19:00,62.3,51.0,29.94,SSW,207,0.0,1.0,67,0.00,,,0.00,weatherlink.com 1.10,2013-06-30 14:19:00,
2013-06-30 08:34:00,63.7,50.0,29.93,East,80,1.0,1.0,62,0.00,,,0.00,weatherlink.com 1.10,2013-06-30 14:34:00,
2013-06-30 08:49:00,64.6,48.0,29.93,NE,53,0.0,3.0,56,0.00,,,0.00,weatherlink.com 1.10,2013-06-30 14:49:00,
2013-06-30 09:04:00,65.9,47.0,29.92,North,7,0.0,3.0,50,0.00,,,0.00,weatherlink.com 1.10,2013-06-30 15:04:00,
2013-06-30 09:20:00,66.7,47.0,29.92,SE,145,0.0,4.0,49,0.00,,,0.00,weatherlink.com 1.10,2013-06-30 15:20:00,
2013-06-30 09:35:00,67.1,45.0,29.91,SE,139,1.0,3.0,46,0.00,,,0.00,weatherlink.com 1.10,2013-06-30 15:35:00,
2013-06-30 09:50:00,67.7,47.0,29.91,NE,36,2.0,6.0,48,0.00,,,0.00,weatherlink.com 1.10,2013-06-30 15:50:00,
2013-06-30 10:05:00,68.1,46.0,29.90,East,98,5.0,6.0,46,0.00,,,0.00,weatherlink.com 1.10,2013-06-30 16:05:00,
2013-06-30 10:20:00,69.3,48.0,29.90,ENE,65,6.0,7.0,46,0.00,,,0.00,weatherlink.com 1.10,2013-06-30 16:20:00,
2013-06-30 10:35:00,66.5,52.0,29.89,ENE,68,7.0,11.0,59,0.00,,,0.00,weatherlink.com 1.10,2013-06-30 16:35:00,
2013-06-30 10:50:00,64.6,50.0,29.90,East,88,11.0,12.0,60,0.00,,,0.00,weatherlink.com 1.10,2013-06-30 16:50:00,
2013-06-30 11:05:00,64.1,51.0,29.90,East,83,8.0,14.0,63,0.00,,,0.00,weatherlink.com 1.10,2013-06-30 17:05:00,
2013-06-30 11:20:00,65.3,52.0,29.90,ENE,75,11.0,11.0,63,0.00,,,0.00,weatherlink.com 1.10,2013-06-30 17:20:00,
2013-06-30 11:36:00,63.3,52.0,29.90,NE,45,6.0,10.0,67,0.00,,,0.00,weatherlink.com 1.10,2013-06-30 17:36:00,
2013-06-30 11:50:00,63.5,51.0,29.90,East,79,4.0,7.0,64,0.00,,,0.00,weatherlink.com 1.10,2013-06-30 17:50:00,
2013-06-30 12:05:00,62.6,51.0,29.91,ENE,62,1.0,5.0,66,0.00,,,0.00,weatherlink.com 1.10,2013-06-30 18:05:00,
2013-06-30 12:20:00,60.9,52.0,29.92,NE,54,3.0,12.0,73,0.00,,,0.00,weatherlink.com 1.10,2013-06-30 18:20:00,
2013-06-30 12:35:00,59.7,52.0,29.93,ENE,72,4.0,7.0,76,0.00,,,0.00,weatherlink.com 1.10,2013-06-30 18:35:00,
2013-06-30 12:50:00,58.6,51.0,29.94,NNW,345,6.0,9.0,77,0.00,,,0.00,weatherlink.com 1.10,2013-06-30 18:50:00,
2013-06-30 13:05:00,57.2,52.0,29.95,East,84,2.0,7.0,83,0.02,,,0.02,weatherlink.com 1.10,2013-06-30 19:05:00,
2013-06-30 13:20:00,55.9,52.0,29.94,North,354,0.0,5.0,88,0.05,,,0.05,weatherlink.com 1.10,2013-06-30 19:20:00,
2013-06-30 13:35:00,56.5,53.0,29.95,NW,304,3.0,3.0,88,0.05,,,0.05,weatherlink.com 1.10,2013-06-30 19:35:00,
2013-06-30 13:50:00,55.5,52.0,29.94,West,280,2.0,3.0,88,0.11,,,0.11,weatherlink.com 1.10,2013-06-30 19:50:00,
2013-06-30 14:05:00,56.4,53.0,29.93,SSW,210,0.0,3.0,88,0.09,,,0.11,weatherlink.com 1.10,2013-06-30 20:05:00,
2013-06-30 14:20:00,58.4,51.0,29.93,SW,226,2.0,3.0,77,0.06,,,0.11,weatherlink.com 1.10,2013-06-30 20:20:00,
2013-06-30 14:35:00,60.3,52.0,29.93,West,267,3.0,4.0,73,0.06,,,0.11,weatherlink.com 1.10,2013-06-30 20:35:00,
2013-06-30 14:50:00,59.5,50.0,29.93,SW,217,2.0,6.0,71,0.00,,,0.11,weatherlink.com 1.10,2013-06-30 20:50:00,
2013-06-30 15:05:00,59.9,50.0,29.93,WSW,252,0.0,5.0,71,0.00,,,0.11,weatherlink.com 1.10,2013-06-30 21:05:00,
2013-06-30 15:20:00,60.4,50.0,29.93,ENE,72,0.0,3.0,68,0.00,,,0.11,weatherlink.com 1.10,2013-06-30 21:20:00,
2013-06-30 15:35:00,60.0,51.0,29.94,WNW,296,0.0,2.0,71,0.00,,,0.11,weatherlink.com 1.10,2013-06-30 21:35:00,
2013-06-30 15:50:00,58.4,53.0,29.95,WNW,295,0.0,1.0,81,0.00,,,0.11,weatherlink.com 1.10,2013-06-30 21:50:00,
2013-06-30 16:05:00,57.2,52.0,29.95,NNW,343,1.0,2.0,84,0.01,,,0.12,weatherlink.com 1.10,2013-06-30 22:05:00,
2013-06-30 16:20:00,56.3,52.0,29.93,SE,129,0.0,7.0,86,0.01,,,0.12,weatherlink.com 1.10,2013-06-30 22:20:00,
2013-06-30 16:35:00,57.2,53.0,29.94,NNW,329,1.0,4.0,86,0.01,,,0.12,weatherlink.com 1.10,2013-06-30 22:35:00,
2013-06-30 16:50:00,58.4,52.0,29.94,WNW,294,1.0,5.0,80,0.01,,,0.12,weatherlink.com 1.10,2013-06-30 22:50:00,
2013-06-30 17:05:00,58.4,52.0,29.93,West,281,1.0,3.0,79,0.00,,,0.12,weatherlink.com 1.10,2013-06-30 23:05:00,
2013-06-30 17:20:00,58.2,51.0,29.93,WNW,303,1.0,3.0,78,0.00,,,0.12,weatherlink.com 1.10,2013-06-30 23:20:00,
2013-06-30 17:35:00,58.2,52.0,29.93,West,277,0.0,4.0,79,0.00,,,0.12,weatherlink.com 1.10,2013-06-30 23:35:00,
2013-06-30 17:50:00,58.6,51.0,29.93,West,267,1.0,1.0,77,0.00,,,0.12,weatherlink.com 1.10,2013-06-30 23:50:00,
2013-06-30 18:05:00,58.6,51.0,29.93,West,264,0.0,2.0,76,0.00,,,0.12,weatherlink.com 1.10,2013-07-01 00:05:00,
2013-06-30 18:20:00,59.2,51.0,29.93,WSW,241,0.0,3.0,74,0.00,,,0.12,weatherlink.com 1.10,2013-07-01 00:20:00,
2013-06-30 18:35:00,59.0,51.0,29.95,West,263,0.0,0.0,76,0.00,,,0.12,weatherlink.com 1.10,2013-07-01 00:35:00,
2013-06-30 18:50:00,58.5,52.0,29.96,West,263,0.0,0.0,80,0.00,,,0.12,weatherlink.com 1.10,2013-07-01 00:50:00,
2013-06-30 19:05:00,57.7,51.0,29.97,NW,316,0.0,4.0,79,0.00,,,0.12,weatherlink.com 1.10,2013-07-01 01:05:00,
2013-06-30 19:20:00,57.1,52.0,29.95,SSW,205,3.0,7.0,82,0.00,,,0.12,weatherlink.com 1.10,2013-07-01 01:20:00,
2013-06-30 19:35:00,56.5,51.0,29.96,NW,321,3.0,6.0,83,0.00,,,0.12,weatherlink.com 1.10,2013-07-01 01:35:00,
2013-06-30 19:50:00,56.1,51.0,29.96,WNW,285,3.0,4.0,83,0.00,,,0.12,weatherlink.com 1.10,2013-07-01 01:50:00,
2013-06-30 20:05:00,55.7,51.0,29.97,WNW,291,1.0,3.0,83,0.00,,,0.12,weatherlink.com 1.10,2013-07-01 02:05:00,
2013-06-30 20:20:00,55.3,50.0,29.99,WNW,301,3.0,3.0,82,0.00,,,0.12,weatherlink.com 1.10,2013-07-01 02:20:00,
2013-06-30 20:35:00,55.0,50.0,29.99,WNW,285,1.0,2.0,83,0.00,,,0.12,weatherlink.com 1.10,2013-07-01 02:35:00,
2013-06-30 20:50:00,54.7,50.0,29.97,South,173,0.0,5.0,84,0.00,,,0.12,weatherlink.com 1.10,2013-07-01 02:50:00,
2013-06-30 21:05:00,54.1,49.0,29.98,West,269,0.0,0.0,84,0.00,,,0.12,weatherlink.com 1.10,2013-07-01 03:05:00,
2013-06-30 21:20:00,52.7,49.0,29.99,West,270,0.0,0.0,86,0.00,,,0.12,weatherlink.com 1.10,2013-07-01 03:20:00,
2013-06-30 21:35:00,51.5,48.0,30.00,WSW,245,2.0,2.0,89,0.00,,,0.12,weatherlink.com 1.10,2013-07-01 03:35:00,
2013-06-30 21:50:00,51.0,48.0,30.01,WSW,248,0.0,1.0,90,0.00,,,0.12,weatherlink.com 1.10,2013-07-01 03:50:00,
2013-06-30 22:05:00,50.9,48.0,30.01,SSW,203,1.0,2.0,90,0.00,,,0.12,weatherlink.com 1.10,2013-07-01 04:05:00,
2013-06-30 22:20:00,50.9,48.0,30.02,SSW,205,0.0,3.0,90,0.00,,,0.12,weatherlink.com 1.10,2013-07-01 04:20:00,
2013-06-30 22:35:00,50.5,48.0,30.02,SSW,205,0.0,1.0,90,0.00,,,0.12,weatherlink.com 1.10,2013-07-01 04:35:00,
2013-06-30 22:50:00,49.9,47.0,30.02,SE,142,0.0,0.0,91,0.00,,,0.12,weatherlink.com 1.10,2013-07-01 04:50:00,
2013-06-30 23:05:00,49.9,47.0,30.02,SW,221,1.0,6.0,90,0.00,,,0.12,weatherlink.com 1.10,2013-07-01 05:05:00,
2013-06-30 23:20:00,49.9,47.0,30.02,SE,139,2.0,3.0,89,0.00,,,0.12,weatherlink.com 1.10,2013-07-01 05:20:00,
2013-06-30 23:35:00,49.3,46.0,30.02,SSW,208,0.0,4.0,89,0.00,,,0.12,weatherlink.com 1.10,2013-07-01 05:35:00,
2013-06-30 23:50:00,48.7,46.0,30.03,SSW,205,1.0,4.0,89,0.00,,,0.12,weatherlink.com 1.10,2013-07-01 05:50:00,